createdAt,value
2019-01-20T00:00:28.646Z,0
2019-01-20T00:01:28.678Z,0
2019-01-20T00:02:28.879Z,0
2019-01-20T00:03:28.861Z,0
2019-01-20T00:04:28.865Z,0
2019-01-20T00:05:29.077Z,0
2019-01-20T00:06:28.539Z,0
2019-01-20T00:07:28.902Z,0
2019-01-20T00:08:28.778Z,0
2019-01-20T00:09:28.530Z,0
2019-01-20T00:10:28.757Z,0
2019-01-20T00:11:28.774Z,0
2019-01-20T00:12:28.475Z,0
2019-01-20T00:13:28.948Z,0
2019-01-20T00:14:28.969Z,0
2019-01-20T00:15:28.412Z,0
2019-01-20T00:16:28.403Z,0
2019-01-20T00:17:28.686Z,0
2019-01-20T00:18:28.372Z,0
2019-01-20T00:19:29.354Z,0
2019-01-20T00:20:29.185Z,0
2019-01-20T00:21:28.564Z,0
2019-01-20T00:22:28.598Z,0
2019-01-20T00:23:28.783Z,0
2019-01-20T00:24:28.304Z,0
2019-01-20T00:25:28.505Z,0
2019-01-20T00:26:28.515Z,0
2019-01-20T00:27:28.271Z,0
2019-01-20T00:28:28.473Z,0
2019-01-20T00:29:28.234Z,0
2019-01-20T00:30:28.685Z,0
2019-01-20T00:31:28.428Z,0
2019-01-20T00:32:28.391Z,0
2019-01-20T00:33:28.400Z,0
2019-01-20T00:34:28.637Z,0
2019-01-20T00:35:28.345Z,0
2019-01-20T00:36:28.129Z,0
2019-01-20T00:37:28.550Z,0
2019-01-20T00:38:28.301Z,0
2019-01-20T00:39:28.284Z,0
2019-01-20T00:40:28.529Z,0
2019-01-20T00:41:31.566Z,0
2019-01-20T00:42:28.267Z,0
2019-01-20T00:43:27.968Z,0
2019-01-20T00:44:27.980Z,0
2019-01-20T00:45:28.438Z,0
2019-01-20T00:46:28.443Z,0
2019-01-20T00:47:27.972Z,0
2019-01-20T00:48:27.714Z,0
2019-01-20T00:49:27.637Z,0
2019-01-20T00:50:28.403Z,0
2019-01-20T00:51:28.131Z,0
2019-01-20T00:52:28.185Z,0
2019-01-20T00:53:28.088Z,0
2019-01-20T00:54:27.883Z,0
2019-01-20T00:55:28.282Z,0
2019-01-20T00:56:28.059Z,0
2019-01-20T00:57:28.065Z,0
2019-01-20T00:58:28.253Z,0
2019-01-20T00:59:27.744Z,0
2019-01-20T01:00:27.490Z,0
2019-01-20T01:01:27.988Z,0
2019-01-20T01:02:27.680Z,0
2019-01-20T01:03:28.184Z,0
2019-01-20T01:04:27.904Z,0
2019-01-20T01:05:27.919Z,0
2019-01-20T01:06:28.145Z,0
2019-01-20T01:07:27.855Z,0
2019-01-20T01:08:28.082Z,0
2019-01-20T01:09:27.572Z,0
2019-01-20T01:10:27.806Z,0
2019-01-20T01:11:34.041Z,0
2019-01-20T01:12:27.289Z,0
2019-01-20T01:13:27.501Z,0
2019-01-20T01:14:27.747Z,0
2019-01-20T01:15:27.470Z,0
2019-01-20T01:16:27.724Z,0
2019-01-20T01:17:27.682Z,0
2019-01-20T01:18:27.679Z,0
2019-01-20T01:19:27.666Z,0
2019-01-20T01:20:27.901Z,0
2019-01-20T01:21:27.879Z,0
2019-01-20T01:22:27.608Z,0
2019-01-20T01:23:27.843Z,0
2019-01-20T01:24:27.345Z,0
2019-01-20T01:25:27.814Z,0
2019-01-20T01:26:27.565Z,0
2019-01-20T01:27:27.046Z,0
2019-01-20T01:28:27.790Z,0
2019-01-20T01:29:27.759Z,0
2019-01-20T01:30:27.570Z,0
2019-01-20T01:31:27.246Z,0
2019-01-20T01:32:27.216Z,0
2019-01-20T01:33:27.464Z,0
2019-01-20T01:34:27.444Z,0
2019-01-20T01:35:27.416Z,0
2019-01-20T01:36:27.440Z,0
2019-01-20T01:37:27.128Z,0
2019-01-20T01:38:27.626Z,0
2019-01-20T01:39:27.603Z,0
2019-01-20T01:40:27.353Z,0
2019-01-20T01:41:27.318Z,0
2019-01-20T01:42:27.285Z,0
2019-01-20T01:43:27.522Z,0
2019-01-20T01:44:27.024Z,0
2019-01-20T01:45:27.064Z,0
2019-01-20T01:46:29.380Z,0
2019-01-20T01:47:26.995Z,0
2019-01-20T01:48:27.105Z,0
2019-01-20T01:49:27.190Z,0
2019-01-20T01:50:27.419Z,0
2019-01-20T01:51:27.169Z,0
2019-01-20T01:52:26.888Z,0
2019-01-20T01:53:27.146Z,0
2019-01-20T01:54:27.361Z,0
2019-01-20T01:55:27.378Z,0
2019-01-20T01:56:27.370Z,0
2019-01-20T01:57:27.320Z,0
2019-01-20T01:58:27.291Z,0
2019-01-20T01:59:27.034Z,0
2019-01-20T02:00:27.001Z,0
2019-01-20T02:01:27.242Z,0
2019-01-20T02:02:26.727Z,0
2019-01-20T02:03:26.968Z,0
2019-01-20T02:04:27.187Z,0
2019-01-20T02:05:26.940Z,0
2019-01-20T02:06:26.918Z,0
2019-01-20T02:07:26.897Z,0
2019-01-20T02:08:26.897Z,0
2019-01-20T02:09:27.123Z,0
2019-01-20T02:10:26.600Z,0
2019-01-20T02:11:26.840Z,0
2019-01-20T02:12:27.073Z,0
2019-01-20T02:13:27.067Z,0
2019-01-20T02:14:26.546Z,0
2019-01-20T02:15:26.768Z,0
2019-01-20T02:16:27.011Z,0
2019-01-20T02:17:26.991Z,0
2019-01-20T02:18:26.503Z,0
2019-01-20T02:19:26.963Z,0
2019-01-20T02:20:27.137Z,0
2019-01-20T02:21:26.454Z,0
2019-01-20T02:22:26.668Z,0
2019-01-20T02:23:26.887Z,0
2019-01-20T02:24:26.872Z,0
2019-01-20T02:25:26.622Z,0
2019-01-20T02:26:26.839Z,0
2019-01-20T02:27:26.589Z,0
2019-01-20T02:28:26.844Z,0
2019-01-20T02:29:26.815Z,0
2019-01-20T02:30:26.801Z,0
2019-01-20T02:31:26.764Z,0
2019-01-20T02:32:26.514Z,0
2019-01-20T02:33:26.518Z,0
2019-01-20T02:34:26.465Z,0
2019-01-20T02:35:26.451Z,0
2019-01-20T02:36:26.696Z,0
2019-01-20T02:37:26.430Z,0
2019-01-20T02:38:26.660Z,0
2019-01-20T02:39:26.404Z,0
2019-01-20T02:40:26.391Z,0
2019-01-20T02:41:26.420Z,0
2019-01-20T02:42:26.340Z,0
2019-01-20T02:43:26.620Z,0
2019-01-20T02:44:26.565Z,0
2019-01-20T02:45:26.560Z,0
2019-01-20T02:46:26.276Z,0
2019-01-20T02:47:26.515Z,0
2019-01-20T02:48:26.541Z,0
2019-01-20T02:49:25.973Z,0
2019-01-20T02:50:26.467Z,0
2019-01-20T02:51:26.442Z,0
2019-01-20T02:52:26.415Z,0
2019-01-20T02:53:25.725Z,0
2019-01-20T02:54:25.639Z,0
2019-01-20T02:55:26.436Z,0
2019-01-20T02:56:26.384Z,0
2019-01-20T02:57:26.364Z,0
2019-01-20T02:58:26.357Z,0
2019-01-20T02:59:25.857Z,0
2019-01-20T03:00:26.300Z,0
2019-01-20T03:01:26.046Z,0
2019-01-20T03:02:26.260Z,0
2019-01-20T03:03:26.305Z,0
2019-01-20T03:04:27.832Z,0
2019-01-20T03:05:26.223Z,0
2019-01-20T03:06:25.978Z,0
2019-01-20T03:07:25.950Z,0
2019-01-20T03:08:25.983Z,0
2019-01-20T03:09:26.162Z,0
2019-01-20T03:10:25.908Z,0
2019-01-20T03:11:26.174Z,0
2019-01-20T03:12:26.139Z,0
2019-01-20T03:13:25.611Z,0
2019-01-20T03:14:26.085Z,0
2019-01-20T03:15:25.823Z,0
2019-01-20T03:16:26.071Z,0
2019-01-20T03:17:26.091Z,0
2019-01-20T03:18:25.774Z,0
2019-01-20T03:19:25.996Z,0
2019-01-20T03:20:25.736Z,0
2019-01-20T03:21:25.968Z,0
2019-01-20T03:22:25.765Z,0
2019-01-20T03:23:25.927Z,0
2019-01-20T03:24:25.417Z,0
2019-01-20T03:25:25.673Z,0
2019-01-20T03:26:25.655Z,0
2019-01-20T03:27:25.631Z,0
2019-01-20T03:28:25.615Z,0
2019-01-20T03:29:25.584Z,0
2019-01-20T03:30:25.864Z,0
2019-01-20T03:31:25.826Z,0
2019-01-20T03:32:25.546Z,0
2019-01-20T03:33:25.546Z,0
2019-01-20T03:34:25.523Z,0
2019-01-20T03:35:25.518Z,0
2019-01-20T03:36:25.739Z,0
2019-01-20T03:37:25.478Z,0
2019-01-20T03:38:25.464Z,0
2019-01-20T03:39:25.430Z,0
2019-01-20T03:40:25.167Z,0
2019-01-20T03:41:25.150Z,0
2019-01-20T03:42:25.447Z,0
2019-01-20T03:43:25.137Z,0
2019-01-20T03:44:25.352Z,0
2019-01-20T03:45:25.148Z,0
2019-01-20T03:46:25.595Z,0
2019-01-20T03:47:24.858Z,0
2019-01-20T03:48:25.310Z,0
2019-01-20T03:49:25.271Z,0
2019-01-20T03:50:26.907Z,0
2019-01-20T03:51:25.265Z,0
2019-01-20T03:52:25.225Z,0
2019-01-20T03:53:25.220Z,0
2019-01-20T03:54:25.023Z,0
2019-01-20T03:55:25.217Z,0
2019-01-20T03:56:25.501Z,0
2019-01-20T03:57:25.226Z,0
2019-01-20T03:58:24.993Z,0
2019-01-20T03:59:25.111Z,0
2019-01-20T04:00:25.112Z,0
2019-01-20T04:01:24.607Z,0
2019-01-20T04:02:25.132Z,0
2019-01-20T04:03:25.085Z,0
2019-01-20T04:04:25.711Z,0
2019-01-20T04:05:24.904Z,0
2019-01-20T04:06:25.311Z,0
2019-01-20T04:07:24.542Z,0
2019-01-20T04:08:24.981Z,0
2019-01-20T04:09:25.228Z,0
2019-01-20T04:10:25.255Z,0
2019-01-20T04:11:25.889Z,0
2019-01-20T04:12:27.809Z,0
2019-01-20T04:13:25.836Z,0
2019-01-20T04:14:24.392Z,0
2019-01-20T04:15:24.618Z,0
2019-01-20T04:16:24.839Z,0
2019-01-20T04:17:25.210Z,0
2019-01-20T04:18:25.126Z,0
2019-01-20T04:19:24.811Z,0
2019-01-20T04:20:25.018Z,0
2019-01-20T04:21:25.025Z,0
2019-01-20T04:22:25.064Z,0
2019-01-20T04:23:24.738Z,0
2019-01-20T04:24:24.820Z,0
2019-01-20T04:25:24.727Z,0
2019-01-20T04:26:24.712Z,0
2019-01-20T04:27:24.461Z,0
2019-01-20T04:28:24.651Z,0
2019-01-20T04:29:24.151Z,0
2019-01-20T04:30:24.920Z,0
2019-01-20T04:31:24.852Z,0
2019-01-20T04:32:24.607Z,0
2019-01-20T04:33:24.730Z,0
2019-01-20T04:34:24.804Z,0
2019-01-20T04:35:24.828Z,0
2019-01-20T04:36:24.564Z,0
2019-01-20T04:37:24.522Z,0
2019-01-20T04:38:24.513Z,0
2019-01-20T04:39:24.740Z,0
2019-01-20T04:40:24.750Z,0
2019-01-20T04:41:24.706Z,0
2019-01-20T04:42:31.277Z,0
2019-01-20T04:43:24.696Z,0
2019-01-20T04:44:24.422Z,0
2019-01-20T04:45:24.679Z,0
2019-01-20T04:46:24.609Z,0
2019-01-20T04:47:24.410Z,0
2019-01-20T04:48:24.367Z,0
2019-01-20T04:49:24.355Z,0
2019-01-20T04:50:24.312Z,0
2019-01-20T04:51:23.802Z,0
2019-01-20T04:52:24.278Z,0
2019-01-20T04:53:24.538Z,0
2019-01-20T04:54:24.372Z,0
2019-01-20T04:55:24.513Z,0
2019-01-20T04:56:24.233Z,0
2019-01-20T04:57:24.486Z,0
2019-01-20T04:58:24.459Z,0
2019-01-20T04:59:23.916Z,0
2019-01-20T05:00:24.194Z,0
2019-01-20T05:01:24.151Z,0
2019-01-20T05:02:24.126Z,0
2019-01-20T05:03:23.871Z,0
2019-01-20T05:04:24.377Z,0
2019-01-20T05:05:24.327Z,0
2019-01-20T05:06:24.310Z,0
2019-01-20T05:07:24.280Z,0
2019-01-20T05:08:24.018Z,0
2019-01-20T05:09:24.245Z,0
2019-01-20T05:10:24.249Z,0
2019-01-20T05:11:23.730Z,0
2019-01-20T05:12:24.200Z,0
2019-01-20T05:13:23.948Z,0
2019-01-20T05:14:24.165Z,0
2019-01-20T05:15:23.911Z,0
2019-01-20T05:16:24.173Z,0
2019-01-20T05:17:23.625Z,0
2019-01-20T05:18:23.617Z,0
2019-01-20T05:19:23.854Z,0
2019-01-20T05:20:23.826Z,0
2019-01-20T05:21:24.073Z,0
2019-01-20T05:22:23.957Z,0
2019-01-20T05:23:23.561Z,0
2019-01-20T05:24:24.037Z,0
2019-01-20T05:25:23.781Z,0
2019-01-20T05:26:23.547Z,0
2019-01-20T05:27:23.484Z,0
2019-01-20T05:28:23.946Z,0
2019-01-20T05:29:24.037Z,0
2019-01-20T05:30:23.510Z,0
2019-01-20T05:31:23.941Z,0
2019-01-20T05:32:23.642Z,0
2019-01-20T05:33:23.925Z,0
2019-01-20T05:34:23.637Z,0
2019-01-20T05:35:23.346Z,0
2019-01-20T05:36:23.350Z,0
2019-01-20T05:37:23.570Z,0
2019-01-20T05:38:23.560Z,0
2019-01-20T05:39:23.784Z,0
2019-01-20T05:40:24.449Z,0
2019-01-20T05:41:23.303Z,0
2019-01-20T05:42:23.263Z,0
2019-01-20T05:43:23.760Z,0
2019-01-20T05:44:23.496Z,0
2019-01-20T05:45:23.696Z,0
2019-01-20T05:46:23.465Z,0
2019-01-20T05:47:23.155Z,0
2019-01-20T05:48:23.641Z,0
2019-01-20T05:49:23.416Z,0
2019-01-20T05:50:23.364Z,0
2019-01-20T05:51:23.165Z,0
2019-01-20T05:52:24.151Z,0
2019-01-20T05:53:23.333Z,0
2019-01-20T05:54:23.057Z,0
2019-01-20T05:55:23.293Z,0
2019-01-20T05:56:23.346Z,0
2019-01-20T05:57:23.273Z,0
2019-01-20T05:58:23.308Z,0
2019-01-20T05:59:23.249Z,0
2019-01-20T06:00:23.198Z,0
2019-01-20T06:01:23.493Z,0
2019-01-20T06:02:23.427Z,0
2019-01-20T06:03:23.475Z,0
2019-01-20T06:04:23.141Z,0
2019-01-20T06:05:22.958Z,0
2019-01-20T06:06:23.119Z,0
2019-01-20T06:07:23.117Z,0
2019-01-20T06:08:23.202Z,0
2019-01-20T06:09:23.071Z,0
2019-01-20T06:10:23.088Z,0
2019-01-20T06:11:22.787Z,0
2019-01-20T06:12:23.040Z,0
2019-01-20T06:13:23.267Z,0
2019-01-20T06:14:22.750Z,0
2019-01-20T06:15:23.264Z,0
2019-01-20T06:16:23.006Z,0
2019-01-20T06:17:22.732Z,0
2019-01-20T06:18:22.966Z,0
2019-01-20T06:19:23.214Z,0
2019-01-20T06:20:22.419Z,0
2019-01-20T06:21:22.919Z,0
2019-01-20T06:22:23.304Z,0
2019-01-20T06:23:22.894Z,0
2019-01-20T06:24:22.389Z,0
2019-01-20T06:25:23.142Z,0
2019-01-20T06:26:22.886Z,0
2019-01-20T06:27:23.593Z,0
2019-01-20T06:28:23.054Z,0
2019-01-20T06:29:22.558Z,0
2019-01-20T06:30:22.518Z,0
2019-01-20T06:31:22.750Z,0
2019-01-20T06:32:22.508Z,0
2019-01-20T06:33:22.466Z,0
2019-01-20T06:34:22.709Z,0
2019-01-20T06:35:22.441Z,0
2019-01-20T06:36:22.428Z,4
2019-01-20T06:37:22.425Z,4
2019-01-20T06:38:22.655Z,4
2019-01-20T06:39:22.902Z,0
2019-01-20T06:40:22.125Z,4
2019-01-20T06:41:22.324Z,4
2019-01-20T06:42:22.610Z,4
2019-01-20T06:43:22.325Z,4
2019-01-20T06:44:22.563Z,4
2019-01-20T06:45:22.533Z,12
2019-01-20T06:46:22.519Z,12
2019-01-20T06:47:21.997Z,8
2019-01-20T06:48:22.722Z,12
2019-01-20T06:49:22.477Z,16
2019-01-20T06:50:22.529Z,20
2019-01-20T06:51:22.224Z,24
2019-01-20T06:52:22.676Z,28
2019-01-20T06:53:22.405Z,32
2019-01-20T06:54:22.657Z,36
2019-01-20T06:55:21.963Z,40
2019-01-20T06:56:22.366Z,48
2019-01-20T06:57:22.355Z,56
2019-01-20T06:58:22.324Z,64
2019-01-20T06:59:22.556Z,68
2019-01-20T07:00:22.289Z,80
2019-01-20T07:01:22.023Z,88
2019-01-20T07:02:22.273Z,96
2019-01-20T07:03:22.246Z,108
2019-01-20T07:04:22.243Z,120
2019-01-20T07:05:22.476Z,136
2019-01-20T07:06:22.218Z,144
2019-01-20T07:07:22.444Z,160
2019-01-20T07:08:21.934Z,176
2019-01-20T07:09:22.399Z,196
2019-01-20T07:10:21.652Z,212
2019-01-20T07:11:22.194Z,236
2019-01-20T07:12:21.876Z,256
2019-01-20T07:13:22.118Z,276
2019-01-20T07:14:22.088Z,300
2019-01-20T07:15:21.838Z,328
2019-01-20T07:16:22.048Z,348
2019-01-20T07:17:22.041Z,376
2019-01-20T07:18:22.004Z,404
2019-01-20T07:19:21.759Z,428
2019-01-20T07:20:22.000Z,460
2019-01-20T07:21:21.974Z,484
2019-01-20T07:22:21.971Z,508
2019-01-20T07:23:21.444Z,536
2019-01-20T07:24:22.006Z,564
2019-01-20T07:25:22.169Z,588
2019-01-20T07:26:21.944Z,616
2019-01-20T07:27:21.887Z,640
2019-01-20T07:28:22.136Z,668
2019-01-20T07:29:21.608Z,688
2019-01-20T07:30:21.625Z,712
2019-01-20T07:31:21.917Z,736
2019-01-20T07:32:22.048Z,760
2019-01-20T07:33:22.056Z,780
2019-01-20T07:34:21.765Z,804
2019-01-20T07:35:22.015Z,824
2019-01-20T07:36:22.043Z,848
2019-01-20T07:37:21.472Z,872
2019-01-20T07:38:21.957Z,900
2019-01-20T07:39:21.469Z,928
2019-01-20T07:40:21.709Z,952
2019-01-20T07:41:21.444Z,980
2019-01-20T07:42:21.393Z,1008
2019-01-20T07:43:24.066Z,1040
2019-01-20T07:44:21.425Z,1076
2019-01-20T07:45:21.359Z,1112
2019-01-20T07:46:21.628Z,1148
2019-01-20T07:47:21.829Z,1180
2019-01-20T07:48:21.325Z,1220
2019-01-20T07:49:21.806Z,1252
2019-01-20T07:50:21.391Z,1292
2019-01-20T07:51:21.533Z,1336
2019-01-20T07:52:21.495Z,1380
2019-01-20T07:53:22.566Z,1432
2019-01-20T07:54:21.485Z,1480
2019-01-20T07:55:21.695Z,1532
2019-01-20T07:56:21.713Z,1584
2019-01-20T07:57:21.191Z,1636
2019-01-20T07:58:21.174Z,1684
2019-01-20T07:59:21.385Z,1736
2019-01-20T08:00:21.648Z,1784
2019-01-20T08:01:21.145Z,1832
2019-01-20T08:02:21.354Z,1876
2019-01-20T08:03:21.583Z,1924
2019-01-20T08:04:20.843Z,1968
2019-01-20T08:05:21.315Z,2012
2019-01-20T08:06:21.552Z,2052
2019-01-20T08:07:21.056Z,2096
2019-01-20T08:08:21.275Z,2148
2019-01-20T08:09:21.247Z,2192
2019-01-20T08:10:21.244Z,2232
2019-01-20T08:11:21.495Z,2268
2019-01-20T08:12:28.039Z,2308
2019-01-20T08:13:28.946Z,2356
2019-01-20T08:14:20.694Z,2396
2019-01-20T08:15:21.404Z,2444
2019-01-20T08:16:21.166Z,2516
2019-01-20T08:17:21.375Z,2596
2019-01-20T08:18:21.133Z,2676
2019-01-20T08:19:21.089Z,2756
2019-01-20T08:20:21.089Z,2832
2019-01-20T08:21:21.370Z,2908
2019-01-20T08:22:20.543Z,2996
2019-01-20T08:23:21.860Z,3080
2019-01-20T08:24:21.291Z,3156
2019-01-20T08:25:20.768Z,3216
2019-01-20T08:26:20.732Z,3268
2019-01-20T08:27:20.989Z,3316
2019-01-20T08:28:20.974Z,3344
2019-01-20T08:29:20.977Z,3372
2019-01-20T08:30:20.690Z,3400
2019-01-20T08:31:20.949Z,3428
2019-01-20T08:32:20.871Z,3456
2019-01-20T08:33:20.897Z,3476
2019-01-20T08:34:20.884Z,3496
2019-01-20T08:35:20.865Z,3492
2019-01-20T08:36:21.107Z,3492
2019-01-20T08:37:20.595Z,3500
2019-01-20T08:38:20.815Z,3496
2019-01-20T08:39:20.829Z,3472
2019-01-20T08:40:20.801Z,3428
2019-01-20T08:41:21.039Z,3392
2019-01-20T08:42:20.766Z,3352
2019-01-20T08:43:20.532Z,3320
2019-01-20T08:44:20.735Z,3304
2019-01-20T08:45:20.734Z,3296
2019-01-20T08:46:20.950Z,3304
2019-01-20T08:47:20.939Z,3308
2019-01-20T08:48:20.674Z,3344
2019-01-20T08:49:20.433Z,3384
2019-01-20T08:50:20.646Z,3436
2019-01-20T08:51:20.644Z,3520
2019-01-20T08:52:20.615Z,3552
2019-01-20T08:53:20.353Z,3592
2019-01-20T08:54:20.341Z,3596
2019-01-20T08:55:20.821Z,3608
2019-01-20T08:56:20.826Z,3608
2019-01-20T08:57:20.299Z,3608
2019-01-20T08:58:20.809Z,3620
2019-01-20T08:59:20.815Z,3636
2019-01-20T09:00:20.513Z,3660
2019-01-20T09:01:20.755Z,3692
2019-01-20T09:02:20.768Z,3728
2019-01-20T09:03:20.845Z,3760
2019-01-20T09:04:20.727Z,3828
2019-01-20T09:05:20.441Z,3860
2019-01-20T09:06:20.679Z,3844
2019-01-20T09:07:20.687Z,3860
2019-01-20T09:08:20.686Z,3860
2019-01-20T09:09:20.160Z,3864
2019-01-20T09:10:20.642Z,3872
2019-01-20T09:11:20.369Z,3892
2019-01-20T09:12:20.661Z,3920
2019-01-20T09:13:20.778Z,3928
2019-01-20T09:14:20.431Z,3940
2019-01-20T09:15:20.580Z,3948
2019-01-20T09:16:20.304Z,3960
2019-01-20T09:17:20.599Z,4020
2019-01-20T09:18:20.522Z,4044
2019-01-20T09:19:20.263Z,4056
2019-01-20T09:20:20.520Z,4064
2019-01-20T09:21:20.300Z,4072
2019-01-20T09:22:20.249Z,4084
2019-01-20T09:23:19.996Z,4100
2019-01-20T09:24:21.015Z,4112
2019-01-20T09:25:20.455Z,4120
2019-01-20T09:26:19.954Z,4120
2019-01-20T09:27:20.182Z,4120
2019-01-20T09:28:20.413Z,4124
2019-01-20T09:29:20.162Z,4128
2019-01-20T09:30:20.410Z,4136
2019-01-20T09:31:20.141Z,4144
2019-01-20T09:32:20.153Z,4152
2019-01-20T09:33:27.111Z,4176
2019-01-20T09:34:20.105Z,4196
2019-01-20T09:35:20.107Z,4196
2019-01-20T09:36:19.839Z,4156
2019-01-20T09:37:20.289Z,4104
2019-01-20T09:38:20.050Z,4028
2019-01-20T09:39:20.334Z,3936
2019-01-20T09:40:20.261Z,3860
2019-01-20T09:41:20.284Z,3792
2019-01-20T09:42:19.991Z,3740
2019-01-20T09:43:20.221Z,3712
2019-01-20T09:44:19.499Z,3696
2019-01-20T09:45:19.953Z,3684
2019-01-20T09:46:20.934Z,3680
2019-01-20T09:47:19.925Z,3684
2019-01-20T09:48:19.453Z,3696
2019-01-20T09:49:19.909Z,3724
2019-01-20T09:50:20.153Z,3752
2019-01-20T09:51:19.868Z,3780
2019-01-20T09:52:19.868Z,3808
2019-01-20T09:53:20.118Z,3824
2019-01-20T09:54:19.857Z,3832
2019-01-20T09:55:19.838Z,3832
2019-01-20T09:56:19.853Z,3840
2019-01-20T09:57:20.072Z,3852
2019-01-20T09:58:19.809Z,3872
2019-01-20T09:59:19.563Z,3912
2019-01-20T10:00:19.800Z,3956
2019-01-20T10:01:19.771Z,4008
2019-01-20T10:02:19.752Z,4068
2019-01-20T10:03:23.335Z,4120
2019-01-20T10:04:19.244Z,4160
2019-01-20T10:05:19.729Z,4204
2019-01-20T10:06:19.208Z,4240
2019-01-20T10:07:19.700Z,4268
2019-01-20T10:08:19.930Z,4284
2019-01-20T10:09:19.176Z,4272
2019-01-20T10:10:19.821Z,4264
2019-01-20T10:11:19.640Z,4212
2019-01-20T10:12:19.863Z,4148
2019-01-20T10:13:19.865Z,4092
2019-01-20T10:14:19.355Z,4048
2019-01-20T10:15:19.335Z,4016
2019-01-20T10:16:19.592Z,3988
2019-01-20T10:17:19.333Z,3964
2019-01-20T10:18:19.583Z,3940
2019-01-20T10:19:19.324Z,3920
2019-01-20T10:20:19.816Z,3912
2019-01-20T10:21:19.516Z,3932
2019-01-20T10:22:19.751Z,3936
2019-01-20T10:23:19.265Z,3932
2019-01-20T10:24:19.472Z,3924
2019-01-20T10:25:22.415Z,3932
2019-01-20T10:26:19.210Z,3940
2019-01-20T10:27:19.453Z,3972
2019-01-20T10:28:19.687Z,4012
2019-01-20T10:29:19.179Z,4060
2019-01-20T10:30:18.942Z,4120
2019-01-20T10:31:19.402Z,4196
2019-01-20T10:32:19.164Z,4288
2019-01-20T10:33:19.391Z,4392
2019-01-20T10:34:19.143Z,4516
2019-01-20T10:35:19.615Z,4648
2019-01-20T10:36:19.091Z,4760
2019-01-20T10:37:19.350Z,4844
2019-01-20T10:38:19.315Z,4892
2019-01-20T10:39:19.300Z,4936
2019-01-20T10:40:19.582Z,4964
2019-01-20T10:41:19.052Z,4976
2019-01-20T10:42:19.270Z,4948
2019-01-20T10:43:19.272Z,4900
2019-01-20T10:44:18.999Z,4832
2019-01-20T10:45:19.246Z,4760
2019-01-20T10:46:19.256Z,4696
2019-01-20T10:47:18.987Z,4652
2019-01-20T10:48:19.458Z,4640
2019-01-20T10:49:19.177Z,4624
2019-01-20T10:50:18.936Z,4616
2019-01-20T10:51:19.420Z,4600
2019-01-20T10:52:18.687Z,4580
2019-01-20T10:53:18.893Z,4568
2019-01-20T10:54:19.373Z,4556
2019-01-20T10:55:21.004Z,4544
2019-01-20T10:56:19.139Z,4532
2019-01-20T10:57:19.353Z,4516
2019-01-20T10:58:19.333Z,4516
2019-01-20T10:59:18.839Z,4524
2019-01-20T11:00:19.053Z,4536
2019-01-20T11:01:19.039Z,4560
2019-01-20T11:02:19.029Z,4600
2019-01-20T11:03:19.269Z,4648
2019-01-20T11:04:19.309Z,4688
2019-01-20T11:05:24.556Z,4724
2019-01-20T11:06:19.019Z,4752
2019-01-20T11:07:18.977Z,4768
2019-01-20T11:08:19.259Z,4772
2019-01-20T11:09:19.186Z,4776
2019-01-20T11:10:18.953Z,4768
2019-01-20T11:11:18.980Z,4760
2019-01-20T11:12:18.934Z,4744
2019-01-20T11:13:18.671Z,4736
2019-01-20T11:14:18.414Z,4728
2019-01-20T11:15:18.890Z,4716
2019-01-20T11:16:18.943Z,4708
2019-01-20T11:17:18.615Z,4700
2019-01-20T11:18:18.633Z,4692
2019-01-20T11:19:18.840Z,4692
2019-01-20T11:20:18.848Z,4700
2019-01-20T11:21:19.119Z,4708
2019-01-20T11:22:18.818Z,4724
2019-01-20T11:23:19.209Z,4748
2019-01-20T11:24:19.026Z,4784
2019-01-20T11:25:18.768Z,4812
2019-01-20T11:26:19.611Z,4828
2019-01-20T11:27:19.019Z,4828
2019-01-20T11:28:18.741Z,4836
2019-01-20T11:29:18.736Z,4848
2019-01-20T11:30:18.771Z,4880
2019-01-20T11:31:18.741Z,4908
2019-01-20T11:32:18.951Z,4904
2019-01-20T11:33:18.928Z,4920
2019-01-20T11:34:18.689Z,4964
2019-01-20T11:35:18.910Z,5028
2019-01-20T11:36:18.925Z,5092
2019-01-20T11:37:18.675Z,5148
2019-01-20T11:38:18.671Z,5200
2019-01-20T11:39:18.127Z,5236
2019-01-20T11:40:18.389Z,5252
2019-01-20T11:41:18.907Z,5264
2019-01-20T11:42:18.868Z,5244
2019-01-20T11:43:18.826Z,5212
2019-01-20T11:44:24.211Z,5164
2019-01-20T11:45:18.801Z,5124
2019-01-20T11:46:18.308Z,5100
2019-01-20T11:47:18.532Z,5092
2019-01-20T11:48:18.922Z,5092
2019-01-20T11:49:18.792Z,5088
2019-01-20T11:50:18.498Z,5092
2019-01-20T11:51:18.506Z,5104
2019-01-20T11:52:18.520Z,5128
2019-01-20T11:53:18.486Z,5180
2019-01-20T11:54:18.722Z,5264
2019-01-20T11:55:18.448Z,5340
2019-01-20T11:56:19.503Z,5416
2019-01-20T11:57:18.691Z,5484
2019-01-20T11:58:18.173Z,5536
2019-01-20T11:59:18.664Z,5584
2019-01-20T12:00:18.383Z,5608
2019-01-20T12:01:18.375Z,5612
2019-01-20T12:02:24.862Z,5592
2019-01-20T12:03:18.142Z,5564
2019-01-20T12:04:18.361Z,5524
2019-01-20T12:05:18.602Z,5504
2019-01-20T12:06:18.579Z,5480
2019-01-20T12:07:18.603Z,5464
2019-01-20T12:08:18.573Z,5436
2019-01-20T12:09:18.332Z,5412
2019-01-20T12:10:18.327Z,5388
2019-01-20T12:11:18.581Z,5372
2019-01-20T12:12:18.291Z,5356
2019-01-20T12:13:18.049Z,5340
2019-01-20T12:14:23.920Z,5340
2019-01-20T12:15:18.248Z,5372
2019-01-20T12:16:18.484Z,5420
2019-01-20T12:17:17.730Z,5636
2019-01-20T12:18:18.209Z,5420
2019-01-20T12:19:17.965Z,5232
2019-01-20T12:20:18.463Z,5092
2019-01-20T12:21:18.437Z,4944
2019-01-20T12:22:18.409Z,4788
2019-01-20T12:23:18.399Z,4704
2019-01-20T12:24:19.456Z,4656
2019-01-20T12:25:18.398Z,4676
2019-01-20T12:26:18.143Z,4760
2019-01-20T12:27:18.379Z,4848
2019-01-20T12:28:17.893Z,4900
2019-01-20T12:29:17.855Z,4952
2019-01-20T12:30:17.851Z,4964
2019-01-20T12:31:18.320Z,4936
2019-01-20T12:32:18.311Z,4764
2019-01-20T12:33:17.813Z,4652
2019-01-20T12:34:18.297Z,4604
2019-01-20T12:35:18.057Z,4704
2019-01-20T12:36:18.037Z,4708
2019-01-20T12:37:18.022Z,4652
2019-01-20T12:38:17.774Z,4616
2019-01-20T12:39:17.996Z,4524
2019-01-20T12:40:17.991Z,4276
2019-01-20T12:41:18.277Z,4296
2019-01-20T12:42:17.983Z,4304
2019-01-20T12:43:17.728Z,4280
2019-01-20T12:44:17.942Z,4248
2019-01-20T12:45:17.691Z,4252
2019-01-20T12:46:18.156Z,4236
2019-01-20T12:47:17.669Z,4244
2019-01-20T12:48:17.885Z,4244
2019-01-20T12:49:17.398Z,4232
2019-01-20T12:50:17.619Z,4232
2019-01-20T12:51:19.375Z,4236
2019-01-20T12:52:17.873Z,4180
2019-01-20T12:53:18.129Z,4144
2019-01-20T12:54:18.077Z,4120
2019-01-20T12:55:18.101Z,4104
2019-01-20T12:56:17.744Z,4080
2019-01-20T12:57:18.057Z,4072
2019-01-20T12:58:18.040Z,4044
2019-01-20T12:59:18.036Z,4032
2019-01-20T13:00:17.791Z,4008
2019-01-20T13:01:17.552Z,3992
2019-01-20T13:02:17.524Z,3968
2019-01-20T13:03:18.003Z,3940
2019-01-20T13:04:17.981Z,3920
2019-01-20T13:05:17.793Z,3900
2019-01-20T13:06:17.746Z,3908
2019-01-20T13:07:18.007Z,3924
2019-01-20T13:08:17.681Z,3936
2019-01-20T13:09:17.920Z,3940
2019-01-20T13:10:17.669Z,3952
2019-01-20T13:11:17.419Z,3956
2019-01-20T13:12:17.669Z,3956
2019-01-20T13:13:17.669Z,3964
2019-01-20T13:14:17.615Z,3976
2019-01-20T13:15:17.636Z,3964
2019-01-20T13:16:17.359Z,3952
2019-01-20T13:17:17.704Z,3940
2019-01-20T13:18:17.862Z,3932
2019-01-20T13:19:17.825Z,3920
2019-01-20T13:20:17.561Z,3900
2019-01-20T13:21:17.324Z,3892
2019-01-20T13:22:17.803Z,3864
2019-01-20T13:23:17.560Z,3836
2019-01-20T13:24:17.765Z,3784
2019-01-20T13:25:17.291Z,3720
2019-01-20T13:26:17.552Z,3656
2019-01-20T13:27:18.490Z,3608
2019-01-20T13:28:17.494Z,3564
2019-01-20T13:29:17.473Z,3520
2019-01-20T13:30:17.261Z,3484
2019-01-20T13:31:17.468Z,3452
2019-01-20T13:32:17.447Z,3420
2019-01-20T13:33:17.684Z,3384
2019-01-20T13:34:17.666Z,3340
2019-01-20T13:35:17.180Z,3292
2019-01-20T13:36:17.400Z,3232
2019-01-20T13:37:17.414Z,3156
2019-01-20T13:38:17.625Z,3084
2019-01-20T13:39:17.609Z,3024
2019-01-20T13:40:17.360Z,2972
2019-01-20T13:41:17.426Z,2936
2019-01-20T13:42:17.148Z,2904
2019-01-20T13:43:17.339Z,2868
2019-01-20T13:44:17.319Z,2832
2019-01-20T13:45:17.063Z,2800
2019-01-20T13:46:17.289Z,2780
2019-01-20T13:47:17.586Z,2772
2019-01-20T13:48:18.504Z,2772
2019-01-20T13:49:17.501Z,2776
2019-01-20T13:50:17.516Z,2796
2019-01-20T13:51:17.516Z,2832
2019-01-20T13:52:16.753Z,2848
2019-01-20T13:53:17.497Z,2844
2019-01-20T13:54:17.228Z,2836
2019-01-20T13:55:17.197Z,2820
2019-01-20T13:56:17.217Z,2808
2019-01-20T13:57:17.323Z,2800
2019-01-20T13:58:17.432Z,2800
2019-01-20T13:59:16.912Z,2824
2019-01-20T14:00:17.395Z,2872
2019-01-20T14:01:17.140Z,2896